Huvudsida
METAR-TAF:

METAR-TAF

Flygplatser :

Ouagadougou Airport

Ouagadougou, Burkina Faso

latitud: 12-21N, longitud: 001-31W, höjd: 316 m

Aktuellt väderrapport

Denna rapport gjordes för 35 minuter sedan, klockan 02:00 UTC
Vind 4 kt från syd/sydost
Temperatur 25°C
Fuktighet 83%
Tryck 1012 hPa
Sikt 10 km eller mer
Inga moln under 1 500 m eller inga cumulonimbus

METAR: DFFD 230200Z 15004KT CAVOK 25/22 Q1012 NOSIG

Tid: 02:35 (02:35 UTC)

Väderprognos

Denna rapport gjordes för 3 timmar och 35 minuter sedan, klockan 23:00 UTC
Prognos gäller från 23 kl. 00 UTC till 24 kl. 06 UTC
Vind 8 kt från syd/sydost
Sikt 10 km eller mer
Få moln på en höjd av 2000 ft
Sannolikhet 30% :
Temporärt
från 23 kl. 16 UTC till 23 kl. 24 UTC
Sikt: 4000 m
Spridda moln på en höjd av 2000 ft
Få moln på en höjd av 3600 ft, Cumulonimbus.
åska, regn

TAF: DFFD 222300Z 2300/2406 16008KT 9999 FEW020 PROB30 TEMPO 2316/2324 4000 TSRA SCT020 FEW036CB

Aktuella väderrapporter och prognoser från 4000 flygplatser (METAR- och TAF-rapporter).

De tillgängliga stationerna syns som gula och röda prickar på kartan.

För musen över prickarna för att se namnen på stationerna.

Klicka sedan för att få väderrapporter och prognoser.

För att ändra kartan: Klicka på de gröna knapparna med ett svart kors på för att zooma in; den gröna knappen med ett streck på för att zooma ut; eller på de gröna pilarna för angränsande kartor.


METAR-TAF: